Time;durP1;ratioP1;P1;durP2;ratioP2;P2;SDS_P1;SDS_P2;PMS_P1;PMS_P2;Temp;Humidity;BMP_temperature;BMP_pressure;BME280_temperature;BME280_humidity;BME280_pressure;Samples;Min_cycle;Max_cycle;Signal;HPM_P1;HPM_P2
2022/03/18 00:01:18;;;;;;;32.90;10.48;;;;;;;1.03;100.00;103835.78;5211704;28;20068;-79
2022/03/18 00:03:49;;;;;;;39.65;12.98;;;;;;;0.97;100.00;103847.34;5215222;28;20021;-79
2022/03/18 00:06:19;;;;;;;37.70;12.40;;;;;;;0.92;100.00;103848.34;5226356;28;20025;-80
2022/03/18 00:08:50;;;;;;;37.13;11.95;;;;;;;0.86;100.00;103853.75;5226382;28;20040;-80
2022/03/18 00:11:21;;;;;;;29.70;10.45;;;;;;;0.74;100.00;103858.38;5227581;28;20610;-79
2022/03/18 00:13:51;;;;;;;29.88;11.00;;;;;;;0.64;100.00;103848.88;5227200;28;20124;-80
2022/03/18 00:16:22;;;;;;;25.35;10.43;;;;;;;0.64;100.00;103858.56;5233144;28;20104;-80
2022/03/18 00:18:52;;;;;;;40.78;13.35;;;;;;;0.70;100.00;103863.72;5227685;28;20036;-79
2022/03/18 00:21:23;;;;;;;33.15;12.27;;;;;;;0.65;100.00;103861.19;5226572;28;20033;-79
2022/03/18 00:23:54;;;;;;;26.17;10.82;;;;;;;0.63;100.00;103851.56;5226840;28;20025;-79
2022/03/18 00:26:24;;;;;;;27.48;10.57;;;;;;;0.63;100.00;103855.06;5226376;28;20428;-79
2022/03/18 00:28:55;;;;;;;32.63;11.07;;;;;;;0.65;100.00;103860.31;5226743;28;20499;-79
2022/03/18 00:31:25;;;;;;;32.67;10.95;;;;;;;0.63;100.00;103865.63;5226578;28;20025;-80
2022/03/18 00:33:56;;;;;;;36.78;12.27;;;;;;;0.59;100.00;103861.28;5226528;28;20029;-80
2022/03/18 00:36:26;;;;;;;21.75;10.77;;;;;;;0.56;100.00;103871.06;5225799;28;20056;-76
2022/03/18 00:38:57;;;;;;;32.78;11.13;;;;;;;0.51;100.00;103877.31;5226911;28;20028;-78
2022/03/18 00:41:27;;;;;;;27.48;10.38;;;;;;;0.50;100.00;103872.03;5225727;28;20079;-77
2022/03/18 00:43:58;;;;;;;24.45;10.00;;;;;;;0.48;100.00;103877.34;5226546;28;20116;-75
2022/03/18 00:46:28;;;;;;;29.33;11.35;;;;;;;0.47;100.00;103886.16;5225526;28;20028;-76
2022/03/18 00:54:39;;;;;;;30.13;9.90;;;;;;;0.34;100.00;103889.03;5225264;28;20028;-76
2022/03/18 00:57:10;;;;;;;21.85;9.23;;;;;;;0.36;100.00;103893.41;5226081;28;20033;-76
2022/03/18 00:59:41;;;;;;;28.77;10.63;;;;;;;0.32;100.00;103898.78;5223136;28;20017;-77
2022/03/18 01:02:11;;;;;;;29.38;11.73;;;;;;;0.22;100.00;103893.63;5208498;28;20150;-76
2022/03/18 01:04:42;;;;;;;27.40;10.90;;;;;;;0.16;100.00;103888.47;5217985;28;20112;-76
2022/03/18 01:07:12;;;;;;;22.88;9.73;;;;;;;0.23;100.00;103899.78;5225955;28;20159;-76
2022/03/18 01:09:43;;;;;;;20.92;9.25;;;;;;;0.39;100.00;103895.13;5225748;28;20028;-76
2022/03/18 01:12:13;;;;;;;25.95;10.77;;;;;;;0.45;100.00;103895.00;5225949;28;20701;-76
2022/03/18 01:14:44;;;;;;;30.58;12.05;;;;;;;0.47;100.00;103899.38;5225546;28;20044;-76
2022/03/18 01:17:15;;;;;;;20.95;10.15;;;;;;;0.42;100.00;103900.34;5225830;28;20036;-76
2022/03/18 01:19:45;;;;;;;24.52;10.98;;;;;;;0.34;100.00;103900.47;5224776;28;20108;-76
2022/03/18 01:22:16;;;;;;;30.20;11.32;;;;;;;0.23;100.00;103900.66;5225714;28;20552;-76
2022/03/18 01:24:46;;;;;;;29.77;10.30;;;;;;;-0.06;100.00;103898.47;5224863;28;20060;-76
2022/03/18 01:27:17;;;;;;;20.42;10.15;;;;;;;-0.27;100.00;103896.16;5225688;28;20021;-76
2022/03/18 01:29:48;;;;;;;32.42;10.85;;;;;;;-0.32;100.00;103890.94;5225199;28;20529;-76
2022/03/18 01:32:19;;;;;;;19.30;8.48;;;;;;;-0.48;100.00;103896.44;5225182;28;20045;-76
2022/03/18 01:34:49;;;;;;;22.17;9.38;;;;;;;-0.69;100.00;103887.94;5224788;28;20425;-76
2022/03/18 01:37:19;;;;;;;24.45;8.93;;;;;;;-0.84;100.00;103896.91;5225459;28;20017;-76
2022/03/18 01:39:50;;;;;;;20.17;9.10;;;;;;;-0.98;100.00;103888.28;5225290;28;20017;-76
2022/03/18 01:42:20;;;;;;;21.00;8.82;;;;;;;-0.97;100.00;103895.28;5225184;28;20113;-76
2022/03/18 01:44:51;;;;;;;25.95;9.57;;;;;;;-0.95;100.00;103888.25;5224419;28;20466;-76
2022/03/18 01:47:22;;;;;;;19.92;9.20;;;;;;;-0.95;100.00;103890.88;5225317;28;20449;-76
2022/03/18 01:49:53;;;;;;;22.55;10.60;;;;;;;-0.90;100.00;103906.66;5225186;28;20481;-76
2022/03/18 01:52:24;;;;;;;29.35;10.75;;;;;;;-0.77;100.00;103904.72;5225061;28;20025;-76
2022/03/18 01:54:55;;;;;;;25.15;10.70;;;;;;;-0.64;100.00;103908.97;5224926;28;20025;-76
2022/03/18 01:57:26;;;;;;;29.52;10.73;;;;;;;-0.58;100.00;103920.31;5224947;28;20041;-76
2022/03/18 01:59:57;;;;;;;22.40;9.82;;;;;;;-0.42;100.00;103925.38;5220390;28;20013;-76
2022/03/18 02:02:27;;;;;;;25.30;10.50;;;;;;;-0.22;100.00;103917.19;5209933;28;20032;-76
2022/03/18 02:04:58;;;;;;;56.97;15.88;;;;;;;-0.17;100.00;103918.00;5217315;28;20052;-76
2022/03/18 02:07:29;;;;;;;23.30;10.00;;;;;;;-0.31;100.00;103913.78;5224929;28;20036;-76
2022/03/18 02:10:00;;;;;;;19.52;8.77;;;;;;;-0.55;100.00;103919.41;5224934;28;20079;-76
2022/03/18 02:12:31;;;;;;;22.83;10.65;;;;;;;-0.70;100.00;103924.84;5225205;28;20063;-76
2022/03/18 02:15:02;;;;;;;28.42;10.95;;;;;;;-0.73;100.00;103914.34;5224491;28;20481;-76
2022/03/18 02:17:32;;;;;;;23.92;10.38;;;;;;;-0.76;100.00;103917.88;5225010;28;20120;-76
2022/03/18 02:20:03;;;;;;;26.13;11.30;;;;;;;-0.80;100.00;103921.47;5223404;28;20100;-76
2022/03/18 02:22:36;;;;;;;24.52;11.60;;;;;;;-0.83;100.00;103924.13;5224947;28;20055;-76
2022/03/18 02:25:12;;;;;;;27.02;10.57;;;;;;;-0.88;100.00;103921.53;5224471;28;20037;-76
2022/03/18 02:27:55;;;;;;;21.33;10.35;;;;;;;-0.97;100.00;103928.66;5225128;28;20033;-75
2022/03/18 02:30:28;;;;;;;21.38;10.35;;;;;;;-1.03;100.00;103926.97;5223577;28;20140;-75
2022/03/18 02:33:00;;;;;;;27.92;10.80;;;;;;;-1.07;100.00;103931.41;5231284;28;20027;-76
2022/03/18 02:35:31;;;;;;;32.40;12.32;;;;;;;-1.06;100.00;103927.00;5230922;28;20104;-76
2022/03/18 02:38:03;;;;;;;23.65;10.60;;;;;;;-1.05;100.00;103924.38;5231719;28;20029;-76
2022/03/18 02:40:34;;;;;;;25.95;11.60;;;;;;;-0.91;100.00;103921.56;5231516;28;20044;-77
2022/03/18 02:43:09;;;;;;;28.95;11.93;;;;;;;-0.89;100.00;103927.72;5231860;28;20373;-76
2022/03/18 02:45:44;;;;;;;28.05;11.82;;;;;;;-0.92;100.00;103930.38;5231244;28;20493;-76
2022/03/18 02:48:14;;;;;;;29.73;12.77;;;;;;;-0.94;100.00;103926.00;5231516;28;20078;-77
2022/03/18 02:50:45;;;;;;;29.52;12.35;;;;;;;-0.98;100.00;103930.44;5231318;28;20025;-76
2022/03/18 02:53:16;;;;;;;27.65;12.13;;;;;;;-1.00;100.00;103916.41;5231716;28;20449;-77
2022/03/18 02:55:46;;;;;;;32.17;11.90;;;;;;;-1.03;100.00;103936.66;5231324;28;20142;-77
2022/03/18 02:58:17;;;;;;;29.13;12.68;;;;;;;-1.07;100.00;103930.53;5231507;28;20502;-77
2022/03/18 03:00:48;;;;;;;34.60;13.68;;;;;;;-1.09;100.00;103932.31;5219450;28;20025;-77
2022/03/18 03:03:19;;;;;;;32.70;12.63;;;;;;;-1.13;100.00;103941.13;5216851;28;20017;-77
2022/03/18 03:08:39;;;;;;;36.42;12.25;;;;;;;-1.15;100.00;103958.75;5231640;28;20348;-77
2022/03/18 03:11:10;;;;;;;28.88;12.13;;;;;;;-1.18;100.00;103962.25;5231352;28;20071;-77
2022/03/18 03:13:41;;;;;;;25.90;12.82;;;;;;;-1.16;100.00;103963.09;5231397;28;20049;-77
2022/03/18 03:16:11;;;;;;;28.60;12.02;;;;;;;-1.10;100.00;103965.69;5231051;28;20025;-77
2022/03/18 03:18:42;;;;;;;28.33;12.30;;;;;;;-1.03;100.00;103963.88;5231335;28;20108;-78
2022/03/18 03:21:13;;;;;;;26.15;12.55;;;;;;;-0.95;100.00;103967.31;5230369;28;20059;-77
2022/03/18 03:23:44;;;;;;;29.55;12.55;;;;;;;-0.90;100.00;103981.31;5231362;28;20025;-77
2022/03/18 03:26:15;;;;;;;30.75;12.77;;;;;;;-0.87;100.00;103983.03;5231099;28;20032;-77
2022/03/18 03:28:45;;;;;;;28.15;11.75;;;;;;;-0.99;100.00;103986.69;5230978;28;20542;-77
2022/03/18 03:31:16;;;;;;;27.60;12.00;;;;;;;-1.11;100.00;103984.13;5217955;28;20033;-77
2022/03/18 03:33:46;;;;;;;28.25;12.00;;;;;;;-1.18;100.00;103979.81;5231231;28;20021;-77
2022/03/18 03:36:17;;;;;;;25.65;12.07;;;;;;;-1.23;100.00;103987.78;5230956;28;20021;-77
2022/03/18 03:38:48;;;;;;;27.40;13.25;;;;;;;-1.24;100.00;103987.78;5229971;28;20025;-77
2022/03/18 03:41:21;;;;;;;26.25;12.52;;;;;;;-1.26;100.00;103985.16;5230769;28;20060;-77
2022/03/18 03:43:52;;;;;;;30.98;11.05;;;;;;;-1.36;100.00;103989.63;5228106;28;20459;-77
2022/03/18 03:46:22;;;;;;;32.03;13.13;;;;;;;-1.42;100.00;103987.03;5227578;28;20031;-77
2022/03/18 03:48:52;;;;;;;40.72;14.40;;;;;;;-1.45;100.00;103997.63;5227891;28;20033;-77
2022/03/18 03:51:23;;;;;;;38.45;13.90;;;;;;;-1.48;100.00;103997.63;5227703;28;20094;-77
2022/03/18 03:53:53;;;;;;;39.72;15.00;;;;;;;-1.49;100.00;104010.81;5227485;28;20067;-77
2022/03/18 03:56:24;;;;;;;34.53;14.82;;;;;;;-1.50;100.00;104011.72;5227399;28;20016;-78
2022/03/18 03:58:54;;;;;;;37.85;15.07;;;;;;;-1.52;100.00;104005.56;5227515;28;20052;-77
2022/03/18 04:01:25;;;;;;;33.55;13.77;;;;;;;-1.55;100.00;104001.22;5211007;28;20567;-77
2022/03/18 04:03:55;;;;;;;40.28;15.27;;;;;;;-1.59;100.00;104008.25;5216782;28;20603;-77
2022/03/18 04:06:26;;;;;;;29.92;14.30;;;;;;;-1.61;100.00;104015.28;5227250;28;20090;-76
2022/03/18 04:08:56;;;;;;;37.40;14.07;;;;;;;-1.66;100.00;104010.91;5227300;28;20091;-77
2022/03/18 04:11:27;;;;;;;26.52;12.00;;;;;;;-1.75;100.00;104001.34;5227613;28;20056;-77
2022/03/18 04:13:57;;;;;;;34.92;13.43;;;;;;;-1.78;100.00;103997.84;5209493;28;20033;-77
2022/03/18 04:16:28;;;;;;;34.17;14.75;;;;;;;-1.78;100.00;104014.50;5227090;28;20127;-77
2022/03/18 04:18:58;;;;;;;37.28;14.82;;;;;;;-1.76;100.00;104017.13;5226966;28;20504;-77
2022/03/18 04:21:30;;;;;;;41.40;14.90;;;;;;;-1.75;100.00;104018.91;5227135;28;20051;-78
2022/03/18 04:24:00;;;;;;;29.08;12.88;;;;;;;-1.76;100.00;104028.53;5227376;28;20151;-77
2022/03/18 04:26:31;;;;;;;33.58;12.90;;;;;;;-1.81;100.00;104030.31;5227004;28;20032;-76
2022/03/18 04:29:02;;;;;;;31.02;13.73;;;;;;;-1.87;100.00;104039.13;5226832;28;20021;-77
2022/03/18 04:31:32;;;;;;;25.13;12.43;;;;;;;-1.89;100.00;104035.63;5226281;28;20025;-77
2022/03/18 04:34:03;;;;;;;33.33;13.05;;;;;;;-1.85;100.00;104045.25;5227169;28;20033;-77
2022/03/18 04:36:33;;;;;;;36.47;13.75;;;;;;;-1.75;100.00;104048.72;5225534;28;20028;-77
2022/03/18 04:39:04;;;;;;;25.65;11.90;;;;;;;-1.68;100.00;104049.56;5227169;28;20025;-76
2022/03/18 04:41:34;;;;;;;35.17;14.10;;;;;;;-1.42;100.00;104052.00;5226926;28;20032;-77
2022/03/18 04:44:05;;;;;;;42.85;14.50;;;;;;;-1.42;100.00;104059.91;5226380;28;20489;-77
2022/03/18 04:46:35;;;;;;;36.75;13.23;;;;;;;-1.43;100.00;104058.16;5226877;28;20047;-77
2022/03/18 04:49:06;;;;;;;31.27;12.82;;;;;;;-1.44;100.00;104059.06;5226642;28;20052;-76
2022/03/18 04:51:36;;;;;;;28.13;12.25;;;;;;;-1.46;100.00;104053.78;5226638;28;20063;-76
2022/03/18 04:54:07;;;;;;;33.83;13.65;;;;;;;-1.53;100.00;104052.09;5224615;28;20028;-76
2022/03/18 04:59:26;;;;;;;30.50;12.93;;;;;;;-1.75;100.00;104061.00;5225547;28;20135;-77
2022/03/18 05:01:57;;;;;;;31.33;13.43;;;;;;;-1.85;100.00;104055.78;5206696;28;20508;-76
2022/03/18 05:04:27;;;;;;;37.03;13.25;;;;;;;-1.94;100.00;104060.22;5218390;28;20370;-77
2022/03/18 05:06:58;;;;;;;32.47;11.80;;;;;;;-2.03;100.00;104055.00;5226240;28;20155;-76
2022/03/18 05:09:28;;;;;;;30.20;13.32;;;;;;;-2.11;100.00;104062.91;5226123;28;20092;-76
2022/03/18 05:11:59;;;;;;;32.75;13.73;;;;;;;-2.14;100.00;104076.97;5226107;28;20108;-76
2022/03/18 05:14:29;;;;;;;40.92;14.90;;;;;;;-2.14;100.00;104074.34;5226050;28;20029;-76
2022/03/18 05:17:00;;;;;;;39.33;14.35;;;;;;;-2.14;100.00;104078.72;5226631;28;20071;-76
2022/03/18 05:19:30;;;;;;;37.70;13.15;;;;;;;-2.18;100.00;104075.22;5226246;28;20392;-77
2022/03/18 05:22:03;;;;;;;30.05;12.57;;;;;;;-2.25;100.00;104075.25;5226129;28;20033;-76
2022/03/18 05:24:34;;;;;;;30.05;12.82;;;;;;;-2.26;100.00;104084.00;5225642;28;20029;-76
2022/03/18 05:27:04;;;;;;;39.00;14.95;;;;;;;-2.27;100.00;104077.00;5226031;28;20025;-76
2022/03/18 05:29:35;;;;;;;35.38;14.27;;;;;;;-2.28;100.00;104091.03;5225079;28;20021;-76
2022/03/18 05:32:07;;;;;;;34.45;14.55;;;;;;;-2.26;100.00;104098.06;5226333;28;20062;-76
2022/03/18 05:34:37;;;;;;;38.95;15.52;;;;;;;-2.24;100.00;104096.28;5225470;28;20025;-76
2022/03/18 05:37:08;;;;;;;42.42;15.55;;;;;;;-2.25;100.00;104089.28;5226020;28;20527;-76
2022/03/18 05:39:38;;;;;;;31.52;14.93;;;;;;;-2.25;100.00;104091.03;5225485;28;20103;-76
2022/03/18 05:42:09;;;;;;;32.67;14.10;;;;;;;-2.25;100.00;104104.19;5225747;28;20055;-76
2022/03/18 05:44:39;;;;;;;35.17;14.75;;;;;;;-2.24;100.00;104100.69;5225543;28;20158;-75
2022/03/18 05:47:10;;;;;;;36.88;15.23;;;;;;;-2.23;100.00;104102.41;5225664;28;20078;-75
2022/03/18 05:49:40;;;;;;;32.20;14.18;;;;;;;-2.23;100.00;104105.06;5225210;28;20101;-76
2022/03/18 05:52:11;;;;;;;33.38;14.30;;;;;;;-2.24;100.00;104106.81;5225527;28;20179;-76
2022/03/18 05:54:41;;;;;;;34.20;14.63;;;;;;;-2.23;100.00;104107.69;5225083;28;20107;-76
2022/03/18 05:57:12;;;;;;;32.63;13.90;;;;;;;-2.24;100.00;104105.94;5225392;28;20072;-76
2022/03/18 05:59:43;;;;;;;32.35;14.65;;;;;;;-2.23;100.00;104103.28;5221462;28;20451;-77
2022/03/18 06:02:13;;;;;;;38.33;14.65;;;;;;;-2.20;100.00;104111.19;5207611;28;20037;-78
2022/03/18 06:04:45;;;;;;;43.33;15.93;;;;;;;-2.20;100.00;104108.56;5217336;28;20025;-76
2022/03/18 06:07:16;;;;;;;35.60;14.70;;;;;;;-2.16;100.00;104105.03;5224446;28;20421;-76
2022/03/18 06:12:35;;;;;;;34.63;12.93;;;;;;;-1.93;100.00;104112.84;5225032;28;20112;-77
2022/03/18 06:15:06;;;;;;;33.50;14.20;;;;;;;-1.74;100.00;104111.00;5224854;28;20111;-77
2022/03/18 06:17:36;;;;;;;29.45;12.95;;;;;;;-1.51;100.00;104116.13;5225274;28;20055;-77
2022/03/18 06:20:07;;;;;;;28.80;13.10;;;;;;;-1.24;100.00;104120.38;5224829;28;20030;-78
2022/03/18 06:22:38;;;;;;;32.33;13.13;;;;;;;-1.00;100.00;104115.81;5225128;28;20032;-76
2022/03/18 06:25:08;;;;;;;31.75;13.90;;;;;;;-0.81;100.00;104117.41;5224489;28;20017;-77
2022/03/18 06:27:39;;;;;;;29.77;12.60;;;;;;;-0.64;100.00;104122.56;5225562;28;20082;-80
2022/03/18 06:30:11;;;;;;;28.40;12.23;;;;;;;-0.39;100.00;104120.56;5218378;28;20022;-76
2022/03/18 06:32:42;;;;;;;21.67;10.38;;;;;;;-0.11;100.00;104129.91;5218164;28;20068;-77
2022/03/18 06:35:12;;;;;;;27.95;11.43;;;;;;;0.32;100.00;104132.06;5224848;28;20473;-77
2022/03/18 06:37:43;;;;;;;24.63;11.88;;;;;;;0.58;100.00;104134.34;5225361;28;20036;-74
2022/03/18 06:40:13;;;;;;;22.90;10.55;;;;;;;0.90;100.00;104136.50;5224553;28;20054;-75
2022/03/18 06:42:44;;;;;;;26.15;10.63;;;;;;;1.42;100.00;104143.59;5223281;28;20396;-74
2022/03/18 06:45:14;;;;;;;22.17;10.35;;;;;;;1.97;100.00;104149.66;5224195;28;20021;-75
2022/03/18 06:47:45;;;;;;;21.17;10.48;;;;;;;2.91;100.00;104146.72;5224879;28;20579;-75
2022/03/18 06:50:15;;;;;;;26.25;11.23;;;;;;;3.08;100.00;104152.50;5224504;28;20033;-75
2022/03/18 06:52:45;;;;;;;26.83;10.77;;;;;;;3.17;100.00;104159.38;5224651;28;20396;-74
2022/03/18 06:55:16;;;;;;;19.73;9.20;;;;;;;3.39;100.00;104157.06;5224636;28;20102;-76
2022/03/18 06:57:46;;;;;;;21.48;10.48;;;;;;;3.66;100.00;104155.47;5225026;28;20365;-76
2022/03/18 07:00:17;;;;;;;23.27;10.70;;;;;;;4.05;100.00;104160.59;5217309;28;20025;-76
2022/03/18 07:02:47;;;;;;;25.05;10.85;;;;;;;4.49;100.00;104158.47;5210034;28;20028;-76
2022/03/18 07:05:18;;;;;;;28.33;11.27;;;;;;;4.87;100.00;104155.50;5218668;28;20025;-75
2022/03/18 07:07:48;;;;;;;23.33;10.40;;;;;;;5.08;100.00;104153.06;5224503;28;20116;-76
2022/03/18 07:10:19;;;;;;;25.52;10.35;;;;;;;5.06;100.00;104147.78;5224097;28;20037;-76
2022/03/18 07:12:49;;;;;;;28.35;12.02;;;;;;;5.02;100.00;104137.28;5224501;28;20040;-76
2022/03/18 07:15:20;;;;;;;22.60;10.88;;;;;;;5.06;100.00;104144.25;5224013;28;20082;-76
2022/03/18 07:18:01;;;;;;;37.15;12.07;;;;;;;5.50;100.00;104142.75;5224530;28;20025;-76
2022/03/18 07:20:34;;;;;;;23.38;10.80;;;;;;;5.87;100.00;104146.78;5228995;28;20021;-75
2022/03/18 07:23:05;;;;;;;20.50;11.38;;;;;;;6.13;100.00;104159.22;5228224;28;20029;-75
2022/03/18 07:25:39;;;;;;;24.45;10.65;;;;;;;6.70;100.00;104163.25;5228312;28;20037;-75
2022/03/18 07:28:12;;;;;;;21.67;10.93;;;;;;;7.11;100.00;104163.38;5228600;28;20032;-75
2022/03/18 07:30:44;;;;;;;45.80;10.38;;;;;;;7.27;100.00;104161.81;5227187;28;20075;-75
2022/03/18 07:33:15;;;;;;;27.35;11.05;;;;;;;7.66;100.00;104167.28;5228239;28;20555;-75
2022/03/18 07:35:45;;;;;;;29.33;10.95;;;;;;;7.98;100.00;104170.31;5228024;28;20484;-76
2022/03/18 07:38:16;;;;;;;27.35;11.13;;;;;;;8.16;100.00;104172.19;5228094;28;20021;-75
2022/03/18 07:40:46;;;;;;;19.35;10.20;;;;;;;8.19;100.00;104177.41;5227861;28;20384;-75
2022/03/18 07:43:17;;;;;;;26.70;10.05;;;;;;;8.49;100.00;104188.53;5229123;28;20035;-78
2022/03/18 07:45:48;;;;;;;23.23;9.90;;;;;;;8.90;100.00;104192.88;5226279;28;20021;-78
2022/03/18 07:48:20;;;;;;;17.48;8.65;;;;;;;9.21;100.00;104194.91;5228112;28;20048;-78
2022/03/18 07:50:51;;;;;;;18.23;8.95;;;;;;;9.42;100.00;104196.53;5206252;28;20026;-77
2022/03/18 07:53:22;;;;;;;29.45;9.35;;;;;;;9.50;100.00;104205.06;5206752;28;20079;-79
2022/03/18 07:55:52;;;;;;;22.23;9.85;;;;;;;9.77;100.00;104212.63;5225262;28;20029;-79
2022/03/18 07:58:23;;;;;;;23.52;7.57;;;;;;;9.55;100.00;104213.72;5228114;28;20112;-80
2022/03/18 08:00:53;;;;;;;21.77;8.07;;;;;;;9.69;100.00;104225.53;5215245;28;20424;-79
2022/03/18 08:03:24;;;;;;;17.35;7.95;;;;;;;9.86;100.00;104222.88;5207936;28;20563;-79
2022/03/18 08:05:54;;;;;;;18.25;8.10;;;;;;;10.12;100.00;104224.19;5227274;28;20052;-80
2022/03/18 08:08:25;;;;;;;19.42;7.93;;;;;;;10.35;100.00;104226.56;5227634;28;20087;-79
2022/03/18 08:10:56;;;;;;;18.13;7.80;;;;;;;10.48;100.00;104224.06;5228407;28;20265;-77
2022/03/18 08:13:27;;;;;;;20.15;7.13;;;;;;;10.68;100.00;104216.72;5226099;28;20029;-78
2022/03/18 08:15:57;;;;;;;21.50;7.22;;;;;;;10.78;100.00;104215.28;5216781;28;20071;-78
2022/03/18 08:18:28;;;;;;;15.70;6.43;;;;;;;11.07;100.00;104221.69;5220988;28;20542;-78
2022/03/18 08:20:58;;;;;;;19.63;6.70;;;;;;;11.00;100.00;104221.19;5225682;28;20423;-79
2022/03/18 08:23:31;;;;;;;18.25;7.15;;;;;;;11.21;100.00;104220.91;5226163;28;20074;-78
2022/03/18 08:26:01;;;;;;;18.55;6.85;;;;;;;11.36;100.00;104218.19;5225783;28;20400;-78
2022/03/18 08:28:32;;;;;;;13.55;6.78;;;;;;;11.64;100.00;104219.25;5227056;28;20021;-85
2022/03/18 08:31:02;;;;;;;17.13;7.25;;;;;;;11.83;100.00;104235.19;5224332;28;20027;-81
2022/03/18 08:33:33;;;;;;;15.25;6.95;;;;;;;11.85;100.00;104227.91;5212854;28;20434;-79
2022/03/18 08:36:04;;;;;;;21.00;7.70;;;;;;;11.73;100.00;104229.47;5224487;28;20028;-79
2022/03/18 08:38:34;;;;;;;21.05;8.73;;;;;;;11.91;100.00;104239.16;5205149;28;20033;-79
2022/03/18 08:41:05;;;;;;;15.43;7.00;;;;;;;11.83;100.00;104238.75;5207512;28;20060;-79
2022/03/18 08:43:35;;;;;;;12.75;7.00;;;;;;;11.94;100.00;104240.78;5225680;28;20060;-79
2022/03/18 08:46:06;;;;;;;20.05;7.32;;;;;;;12.13;100.00;104244.09;5225251;28;20033;-79
2022/03/18 08:48:36;;;;;;;30.50;9.77;;;;;;;12.41;100.00;104239.72;5215230;28;20505;-79
2022/03/18 08:51:06;;;;;;;19.48;7.90;;;;;;;12.39;100.00;104245.16;5209201;28;20530;-79
2022/03/18 08:53:37;;;;;;;19.05;7.78;;;;;;;12.50;100.00;104251.69;5213941;28;20196;-79
2022/03/18 08:56:08;;;;;;;24.05;7.85;;;;;;;12.42;100.00;104246.81;5217776;28;20026;-79
2022/03/18 08:58:38;;;;;;;17.27;8.30;;;;;;;12.63;100.00;104255.38;5216386;28;20075;-79
2022/03/18 09:01:09;;;;;;;17.20;7.68;;;;;;;12.95;100.00;104258.69;5210650;28;20028;-79
2022/03/18 09:03:39;;;;;;;23.00;7.75;;;;;;;13.13;100.00;104259.34;5212454;28;20068;-79
2022/03/18 09:06:11;;;;;;;16.63;7.03;;;;;;;13.04;100.00;104263.50;5224991;28;20108;-79
2022/03/18 09:08:42;;;;;;;14.68;5.30;;;;;;;12.56;92.86;104259.44;5222284;28;20185;-76
2022/03/18 09:11:13;;;;;;;11.98;5.63;;;;;;;12.43;95.98;104268.25;5214354;28;20025;-77
2022/03/18 09:13:44;;;;;;;14.20;5.43;;;;;;;12.58;95.41;104270.94;5225033;28;20035;-76
2022/03/18 09:16:15;;;;;;;17.73;5.50;;;;;;;12.89;97.59;104269.88;5224516;28;20036;-76
2022/03/18 09:18:45;;;;;;;12.77;5.45;;;;;;;13.16;92.19;104267.25;5224763;28;20119;-77
2022/03/18 09:21:16;;;;;;;12.68;4.93;;;;;;;13.14;90.10;104266.44;5223497;28;20652;-77
2022/03/18 09:23:46;;;;;;;17.15;4.90;;;;;;;13.46;87.07;104280.56;5224907;28;20027;-76
2022/03/18 09:26:17;;;;;;;12.75;4.82;;;;;;;13.58;86.04;104277.03;5224651;28;20039;-76
2022/03/18 09:28:47;;;;;;;13.35;5.78;;;;;;;14.00;91.32;104281.34;5223481;28;20481;-76
2022/03/18 09:31:18;;;;;;;11.90;4.18;;;;;;;14.14;77.90;104276.84;5223686;28;20032;-76
2022/03/18 09:33:48;;;;;;;12.15;4.13;;;;;;;14.39;73.16;104286.78;5223829;28;20033;-76
2022/03/18 09:36:19;;;;;;;9.65;4.80;;;;;;;14.20;71.69;104288.06;5226694;28;20021;-81
2022/03/18 09:38:50;;;;;;;9.38;3.40;;;;;;;14.23;70.79;104295.97;5228221;28;20416;-76
2022/03/18 09:41:21;;;;;;;8.63;2.83;;;;;;;14.30;68.14;104288.28;5223775;28;20072;-79
2022/03/18 09:43:51;;;;;;;6.65;3.03;;;;;;;14.59;68.28;104288.97;5225205;28;20620;-80
2022/03/18 09:46:22;;;;;;;10.65;2.75;;;;;;;14.10;60.89;104286.09;5211244;28;20070;-76
2022/03/18 09:48:53;;;;;;;9.85;3.20;;;;;;;14.29;67.35;104283.00;5224070;28;20025;-76
2022/03/18 09:51:23;;;;;;;10.95;3.50;;;;;;;14.43;62.00;104282.91;5224039;28;20021;-76
2022/03/18 09:53:54;;;;;;;7.90;3.15;;;;;;;14.53;61.80;104294.81;5224310;28;20399;-76
2022/03/18 09:56:25;;;;;;;6.95;3.03;;;;;;;14.36;64.71;104287.03;5223976;28;20024;-76
2022/03/18 09:58:55;;;;;;;12.68;3.40;;;;;;;14.63;66.57;104287.78;5223964;28;20044;-80
2022/03/18 10:01:25;;;;;;;11.23;3.20;;;;;;;14.79;67.62;104294.78;5207639;28;20021;-79
2022/03/18 10:04:02;;;;;;;7.90;3.63;;;;;;;14.63;62.00;104295.03;5208672;28;20029;-75
2022/03/18 10:06:34;;;;;;;9.38;3.25;;;;;;;14.37;62.78;104294.16;5224864;28;20029;-83
2022/03/18 10:09:05;;;;;;;8.63;3.22;;;;;;;14.18;62.03;104290.00;5213375;28;20025;-85
2022/03/18 10:11:40;;;;;;;9.20;3.35;;;;;;;13.85;61.98;104293.19;5226189;28;20512;-80
2022/03/18 10:14:28;;;;;;;10.60;3.67;;;;;;;13.93;65.59;104288.13;5224814;28;20737;-81
2022/03/18 10:17:02;;;;;;;11.40;4.22;;;;;;;14.05;67.07;104289.13;5226493;28;20025;-81
2022/03/18 10:19:45;;;;;;;9.82;3.00;;;;;;;14.10;65.28;104291.50;5226835;28;20020;-81
2022/03/18 10:22:17;;;;;;;10.32;4.13;;;;;;;14.22;67.47;104286.13;5219139;28;20036;-80
2022/03/18 10:24:47;;;;;;;15.43;3.60;;;;;;;14.18;62.80;104294.56;5218576;28;20076;-80
2022/03/18 10:27:20;;;;;;;9.60;3.22;;;;;;;14.05;62.05;104288.25;5225100;28;20037;-81
2022/03/18 10:29:53;;;;;;;8.15;3.47;;;;;;;14.19;65.05;104289.03;5225559;28;20021;-80
2022/03/18 10:32:27;;;;;;;11.95;4.13;;;;;;;14.14;68.76;104290.34;5226226;28;20036;-81
2022/03/18 10:37:48;;;;;;;10.23;3.55;;;;;;;14.30;68.73;104282.03;5225759;28;20044;-81
2022/03/18 10:40:33;;;;;;;10.20;3.70;;;;;;;13.92;66.95;104282.84;5216077;28;20112;-80
2022/03/18 10:43:05;;;;;;;11.88;3.28;;;;;;;13.79;70.38;104290.03;5223579;28;20043;-80
2022/03/18 10:45:36;;;;;;;14.15;3.63;;;;;;;13.77;68.34;104295.56;5225469;28;20044;-81
2022/03/18 10:48:22;;;;;;;13.82;3.78;;;;;;;13.93;68.75;104288.13;5218206;28;20069;-81
2022/03/18 10:51:07;;;;;;;6.57;3.40;;;;;;;13.87;68.04;104285.88;5224530;28;20047;-81
2022/03/18 10:53:39;;;;;;;16.00;3.75;;;;;;;13.96;65.36;104289.78;5229322;28;20032;-81
2022/03/18 10:56:09;;;;;;;8.88;3.33;;;;;;;13.97;64.86;104292.38;5229433;28;20082;-80
2022/03/18 10:58:40;;;;;;;12.15;3.42;;;;;;;13.97;72.62;104291.50;5229065;28;20029;-80
2022/03/18 11:01:12;;;;;;;11.82;3.08;;;;;;;13.90;70.26;104293.72;5212786;28;20029;-79
2022/03/18 11:03:45;;;;;;;11.77;2.95;;;;;;;13.83;68.54;104291.56;5214557;28;20432;-79
2022/03/18 11:06:16;;;;;;;9.13;2.80;;;;;;;13.97;65.59;104291.50;5227162;28;20031;-80
2022/03/18 11:08:48;;;;;;;10.45;3.05;;;;;;;14.15;68.12;104282.13;5227424;28;20029;-79
2022/03/18 11:11:22;;;;;;;12.70;3.05;;;;;;;14.39;67.05;104292.19;5226976;28;20436;-79
2022/03/18 11:14:00;;;;;;;8.90;3.10;;;;;;;14.06;62.99;104293.56;5227728;28;20528;-78
2022/03/18 11:16:35;;;;;;;6.68;2.88;;;;;;;13.95;65.76;104290.72;5229516;28;20051;-81
2022/03/18 11:19:24;;;;;;;10.07;3.15;;;;;;;14.08;64.08;104297.03;5227199;28;20021;-78
2022/03/18 11:22:00;;;;;;;6.93;2.95;;;;;;;13.93;65.25;104292.69;5226702;28;20029;-79
2022/03/18 11:24:32;;;;;;;9.55;2.80;;;;;;;13.94;62.38;104289.00;5226215;28;20024;-79
2022/03/18 11:27:03;;;;;;;8.45;3.33;;;;;;;14.14;63.32;104287.63;5227292;28;20025;-78
2022/03/18 11:29:34;;;;;;;11.25;3.80;;;;;;;14.07;62.48;104289.91;5225399;28;20100;-78
2022/03/18 11:32:21;;;;;;;9.52;3.40;;;;;;;14.25;65.79;104277.81;5215110;28;20025;-78
2022/03/18 11:35:09;;;;;;;10.10;2.60;;;;;;;14.39;62.90;104274.13;5226271;28;20104;-79
2022/03/18 11:38:30;;;;;;;8.70;3.08;;;;;;;14.67;65.11;104285.75;5226764;28;20017;-79
2022/03/18 11:41:05;;;;;;;10.13;2.72;;;;;;;14.58;59.83;104278.28;5226003;28;20064;-79
2022/03/18 11:43:39;;;;;;;11.63;2.83;;;;;;;14.54;63.34;104279.47;5226657;28;20543;-79
2022/03/18 11:46:27;;;;;;;7.80;2.40;;;;;;;14.52;55.89;104281.44;5225906;28;20032;-79